Time;durP1;ratioP1;P1;durP2;ratioP2;P2;SDS_P1;SDS_P2;PMS_P1;PMS_P2;Temp;Humidity;BMP_temperature;BMP_pressure;BME280_temperature;BME280_humidity;BME280_pressure;Samples;Min_cycle;Max_cycle;Signal;HPM_P1;HPM_P2
2023/03/02 00:01:50;;;;;;;21.03;11.30;;;-0.70;99.90;;;;;;5016446;28;20210;-60
2023/03/02 00:04:22;;;;;;;20.33;11.33;;;-0.70;99.90;;;;;;5008507;28;20264;-59
2023/03/02 00:06:53;;;;;;;18.77;11.10;;;-0.70;99.90;;;;;;5014524;28;20237;-59
2023/03/02 00:09:21;;;;;;;23.10;11.70;;;-0.70;99.90;;;;;;5014782;28;20225;-59
2023/03/02 00:11:51;;;;;;;16.83;11.10;;;-0.70;99.90;;;;;;5013371;28;20222;-59
2023/03/02 00:14:21;;;;;;;14.97;9.97;;;-0.70;99.90;;;;;;5015914;28;20226;-59
2023/03/02 00:16:49;;;;;;;15.07;10.33;;;-0.70;99.90;;;;;;5011164;28;20557;-60
2023/03/02 00:19:17;;;;;;;18.90;10.30;;;-0.70;99.90;;;;;;5004207;28;20210;-59
2023/03/02 00:21:45;;;;;;;17.37;10.93;;;-0.70;99.90;;;;;;5008000;28;20577;-59
2023/03/02 00:24:14;;;;;;;18.80;10.50;;;-0.70;99.90;;;;;;5025784;28;20267;-59
2023/03/02 00:26:42;;;;;;;17.97;11.00;;;-0.70;99.90;;;;;;5033701;28;20236;-59
2023/03/02 00:29:11;;;;;;;20.50;10.60;;;-0.70;99.90;;;;;;5037564;28;20225;-60
2023/03/02 00:31:40;;;;;;;19.07;10.83;;;-0.80;99.90;;;;;;5014589;28;20237;-59
2023/03/02 00:34:08;;;;;;;20.53;10.60;;;-0.70;99.90;;;;;;5015090;28;20308;-59
2023/03/02 00:36:37;;;;;;;19.73;11.20;;;-0.70;99.90;;;;;;5016383;28;20226;-59
2023/03/02 00:39:05;;;;;;;16.43;9.90;;;-0.70;99.90;;;;;;5011967;28;20241;-59
2023/03/02 00:41:33;;;;;;;21.13;10.67;;;-0.70;99.90;;;;;;5013607;28;20702;-59
2023/03/02 00:44:02;;;;;;;16.87;9.90;;;-0.70;99.90;;;;;;5007898;28;20203;-59
2023/03/02 00:46:30;;;;;;;16.50;10.10;;;-0.70;99.90;;;;;;5008438;28;20194;-59
2023/03/02 00:49:00;;;;;;;15.37;9.83;;;-0.70;99.90;;;;;;5013341;28;20238;-59
2023/03/02 00:51:28;;;;;;;22.27;10.77;;;-0.80;99.90;;;;;;5007975;28;20218;-59
2023/03/02 00:53:56;;;;;;;18.50;10.00;;;-0.80;99.90;;;;;;5014906;28;20249;-60
2023/03/02 00:56:25;;;;;;;18.47;10.47;;;-0.80;99.90;;;;;;5010002;28;20284;-59
2023/03/02 00:58:53;;;;;;;21.63;10.40;;;-0.90;99.90;;;;;;5016689;28;20213;-59
2023/03/02 01:01:22;;;;;;;15.63;9.67;;;-0.90;99.90;;;;;;5009445;28;20229;-59
2023/03/02 01:03:50;;;;;;;17.80;10.23;;;-0.90;99.90;;;;;;5011164;28;20273;-60
2023/03/02 01:06:21;;;;;;;17.17;10.43;;;-0.90;99.90;;;;;;5003186;28;20257;-59
2023/03/02 01:08:49;;;;;;;17.33;10.03;;;-0.90;99.90;;;;;;5012642;28;20746;-59
2023/03/02 01:11:20;;;;;;;19.47;10.90;;;-0.90;99.90;;;;;;5003798;28;20229;-59
2023/03/02 01:13:49;;;;;;;19.87;10.57;;;-1.00;99.90;;;;;;5007489;28;20195;-59
2023/03/02 01:16:18;;;;;;;20.87;10.77;;;-1.00;99.90;;;;;;5008883;28;20230;-59
2023/03/02 01:18:46;;;;;;;17.63;11.20;;;-1.10;99.90;;;;;;5010690;28;20226;-59
2023/03/02 01:21:16;;;;;;;19.30;11.40;;;-1.10;99.90;;;;;;5022494;28;20568;-59
2023/03/02 01:23:45;;;;;;;19.93;10.83;;;-1.20;99.90;;;;;;5006434;28;20222;-59
2023/03/02 01:26:13;;;;;;;18.47;10.13;;;-1.30;99.90;;;;;;5015001;28;20225;-59
2023/03/02 01:28:42;;;;;;;18.90;10.07;;;-1.30;99.90;;;;;;5012649;28;20190;-59
2023/03/02 01:31:10;;;;;;;18.33;10.23;;;-1.40;99.90;;;;;;5009727;28;20225;-59
2023/03/02 01:33:38;;;;;;;17.87;10.50;;;-1.40;99.90;;;;;;5028901;28;20719;-59
2023/03/02 01:36:08;;;;;;;18.73;10.50;;;-1.40;99.90;;;;;;5028601;28;20222;-59
2023/03/02 01:38:38;;;;;;;21.13;11.00;;;-1.40;99.90;;;;;;5030020;28;20729;-59
2023/03/02 01:41:08;;;;;;;18.70;10.80;;;-1.40;99.90;;;;;;5022204;28;20591;-59
2023/03/02 01:43:37;;;;;;;18.07;10.87;;;-1.40;99.90;;;;;;5033330;28;20205;-59
2023/03/02 01:46:09;;;;;;;20.60;10.40;;;-1.50;99.90;;;;;;5033138;28;20275;-59
2023/03/02 01:48:45;;;;;;;16.63;9.97;;;-1.50;99.90;;;;;;5029646;28;20605;-59
2023/03/02 01:51:17;;;;;;;15.97;10.30;;;-1.50;99.90;;;;;;5030114;28;20232;-59
2023/03/02 01:53:47;;;;;;;17.40;10.83;;;-1.60;99.90;;;;;;5032471;28;20240;-59
2023/03/02 01:56:22;;;;;;;17.83;10.17;;;-1.60;99.90;;;;;;5025237;28;20928;-59
2023/03/02 01:58:53;;;;;;;18.60;10.53;;;-1.70;99.90;;;;;;5033241;28;20636;-58
2023/03/02 02:01:22;;;;;;;18.50;10.73;;;-1.70;99.90;;;;;;5032796;28;20588;-59
2023/03/02 02:03:51;;;;;;;17.97;10.57;;;-1.70;99.90;;;;;;5035877;28;20216;-59
2023/03/02 02:06:24;;;;;;;18.07;10.63;;;-1.70;99.90;;;;;;5041094;28;20217;-58
2023/03/02 02:08:56;;;;;;;17.93;9.83;;;-1.70;99.90;;;;;;5031910;28;20351;-59
2023/03/02 02:11:26;;;;;;;17.67;10.57;;;-1.70;99.90;;;;;;5028020;28;20217;-59
2023/03/02 02:13:57;;;;;;;22.03;10.67;;;-1.80;99.90;;;;;;5030527;28;20190;-59
2023/03/02 02:16:26;;;;;;;19.20;10.57;;;-1.80;99.90;;;;;;5032761;28;20579;-59
2023/03/02 02:18:55;;;;;;;16.80;10.10;;;-1.80;99.90;;;;;;5027641;28;20241;-59
2023/03/02 02:21:25;;;;;;;18.07;10.10;;;-1.80;99.90;;;;;;5025229;28;20896;-59
2023/03/02 02:24:08;;;;;;;19.00;10.20;;;-1.80;99.90;;;;;;5030344;28;20275;-59
2023/03/02 02:26:40;;;;;;;15.00;9.70;;;-1.90;99.90;;;;;;5030665;28;20244;-59
2023/03/02 02:29:13;;;;;;;15.37;9.37;;;-1.90;99.90;;;;;;5029661;28;20190;-58
2023/03/02 02:31:47;;;;;;;16.27;10.10;;;-1.90;99.90;;;;;;5038023;28;20208;-59
2023/03/02 02:34:21;;;;;;;16.63;10.03;;;-2.00;99.90;;;;;;5032012;28;20556;-59
2023/03/02 02:36:54;;;;;;;18.87;9.97;;;-2.00;99.90;;;;;;5029075;28;20231;-58
2023/03/02 02:39:28;;;;;;;16.00;10.10;;;-2.00;99.90;;;;;;5020638;28;20586;-59
2023/03/02 02:42:00;;;;;;;22.40;10.50;;;-2.00;99.90;;;;;;5030966;28;20209;-60
2023/03/02 02:44:29;;;;;;;19.07;10.43;;;-2.00;99.90;;;;;;5021837;28;20232;-59
2023/03/02 02:46:57;;;;;;;19.10;9.83;;;-2.00;99.90;;;;;;5026025;28;20244;-59
2023/03/02 02:49:33;;;;;;;19.70;10.00;;;-2.00;99.90;;;;;;5029914;28;20267;-58
2023/03/02 02:52:04;;;;;;;19.43;10.57;;;-2.00;99.90;;;;;;5027348;28;20235;-59
2023/03/02 02:54:33;;;;;;;15.57;9.53;;;-2.00;99.90;;;;;;5027865;28;20238;-59
2023/03/02 02:57:04;;;;;;;17.63;9.50;;;-2.00;99.90;;;;;;5026176;28;20257;-59
2023/03/02 02:59:35;;;;;;;18.77;9.43;;;-2.00;99.90;;;;;;5020428;28;20225;-59
2023/03/02 03:02:03;;;;;;;16.93;10.10;;;-2.00;99.90;;;;;;5029979;28;20644;-59
2023/03/02 03:04:33;;;;;;;16.77;9.37;;;-2.10;99.90;;;;;;5020597;28;20738;-59
2023/03/02 03:07:04;;;;;;;14.70;9.23;;;-2.10;99.90;;;;;;5032035;28;20236;-59
2023/03/02 03:09:33;;;;;;;21.43;9.97;;;-2.10;99.90;;;;;;5029942;28;20299;-58
2023/03/02 03:12:05;;;;;;;18.97;10.13;;;-2.20;99.90;;;;;;5031634;28;20225;-59
2023/03/02 03:14:36;;;;;;;15.73;10.10;;;-2.20;99.90;;;;;;5033245;28;20217;-59
2023/03/02 03:17:10;;;;;;;16.90;10.40;;;-2.20;99.90;;;;;;5031119;28;20197;-59
2023/03/02 03:19:41;;;;;;;14.87;9.53;;;-2.20;99.90;;;;;;5036222;28;20208;-59
2023/03/02 03:22:11;;;;;;;15.30;9.43;;;-2.20;99.90;;;;;;5034741;28;20275;-59
2023/03/02 03:24:42;;;;;;;19.87;9.40;;;-2.30;99.90;;;;;;5028420;28;20814;-59
2023/03/02 03:27:14;;;;;;;17.37;9.77;;;-2.30;99.90;;;;;;5035140;28;20225;-59
2023/03/02 03:29:44;;;;;;;19.53;10.30;;;-2.30;99.90;;;;;;5041009;28;20221;-59
2023/03/02 03:32:12;;;;;;;18.00;10.40;;;-2.30;99.90;;;;;;5022798;28;20339;-58
2023/03/02 03:34:40;;;;;;;15.07;10.20;;;-2.20;99.90;;;;;;5031485;28;20186;-59
2023/03/02 03:37:09;;;;;;;17.03;9.97;;;-2.20;99.90;;;;;;5027304;28;20221;-59
2023/03/02 03:39:38;;;;;;;17.90;10.30;;;-2.20;99.90;;;;;;5035942;28;20757;-59
2023/03/02 03:42:06;;;;;;;15.33;9.73;;;-2.20;99.90;;;;;;5036205;28;20688;-59
2023/03/02 03:44:36;;;;;;;18.33;10.20;;;-2.30;99.90;;;;;;5033768;28;20217;-58
2023/03/02 03:47:04;;;;;;;15.10;9.50;;;-2.30;99.90;;;;;;5031446;28;20195;-59
2023/03/02 03:49:33;;;;;;;20.40;10.07;;;-2.30;99.90;;;;;;5034300;28;20190;-59
2023/03/02 03:52:02;;;;;;;18.30;10.63;;;-2.30;99.90;;;;;;5034415;28;20271;-59
2023/03/02 03:54:31;;;;;;;16.87;10.00;;;-2.30;99.90;;;;;;5035286;28;20226;-59
2023/03/02 03:56:59;;;;;;;16.17;9.77;;;-2.30;99.90;;;;;;5035220;28;20256;-59
2023/03/02 03:59:28;;;;;;;17.10;9.87;;;-2.30;99.90;;;;;;5036198;28;20221;-59
2023/03/02 04:01:59;;;;;;;13.93;9.20;;;-2.30;99.90;;;;;;5034936;28;20644;-58
2023/03/02 04:04:31;;;;;;;15.40;9.70;;;-2.30;99.90;;;;;;5042058;28;20197;-59
2023/03/02 04:07:00;;;;;;;16.93;9.80;;;-2.30;99.90;;;;;;5028073;28;20217;-59
2023/03/02 04:09:31;;;;;;;20.37;10.43;;;-2.30;99.90;;;;;;5031176;28;20275;-59
2023/03/02 04:11:59;;;;;;;19.87;10.07;;;-2.20;99.90;;;;;;5034874;28;20304;-59
2023/03/02 04:14:27;;;;;;;15.63;9.97;;;-2.20;99.90;;;;;;5019058;28;20232;-59
2023/03/02 04:16:57;;;;;;;19.23;10.37;;;-2.20;99.90;;;;;;5028375;28;20193;-58
2023/03/02 04:19:26;;;;;;;20.90;9.97;;;-2.20;99.90;;;;;;5010550;28;20658;-59
2023/03/02 04:21:57;;;;;;;15.17;9.97;;;-2.20;99.90;;;;;;5034085;28;20718;-58
2023/03/02 04:24:25;;;;;;;17.07;9.70;;;-2.20;99.90;;;;;;5021720;28;20300;-59
2023/03/02 04:26:53;;;;;;;14.60;9.03;;;-2.10;99.90;;;;;;5015907;28;20221;-58
2023/03/02 04:29:22;;;;;;;15.97;9.60;;;-2.10;99.90;;;;;;5019526;28;20276;-58
2023/03/02 04:31:50;;;;;;;15.03;9.80;;;-2.00;99.90;;;;;;5026492;28;20193;-57
2023/03/02 04:34:20;;;;;;;14.73;9.23;;;-2.00;99.90;;;;;;5034446;28;20296;-58
2023/03/02 04:36:48;;;;;;;19.07;10.50;;;-2.00;99.90;;;;;;5034680;28;20571;-58
2023/03/02 04:39:18;;;;;;;15.13;9.93;;;-2.00;99.90;;;;;;5034238;28;20418;-59
2023/03/02 04:41:46;;;;;;;18.03;9.77;;;-2.00;99.90;;;;;;5026212;28;20333;-59
2023/03/02 04:44:16;;;;;;;16.83;9.47;;;-2.00;99.90;;;;;;5033895;28;20229;-59
2023/03/02 04:46:45;;;;;;;21.30;10.00;;;-1.90;99.90;;;;;;5035010;28;20186;-59
2023/03/02 04:49:14;;;;;;;14.30;10.03;;;-1.90;99.90;;;;;;5033709;28;20216;-59
2023/03/02 04:51:45;;;;;;;14.97;9.67;;;-1.90;99.90;;;;;;5022750;28;20264;-59
2023/03/02 04:54:16;;;;;;;22.97;10.13;;;-1.90;99.90;;;;;;5033751;28;20225;-59
2023/03/02 04:56:47;;;;;;;19.77;9.93;;;-1.90;99.90;;;;;;5030473;28;20606;-59
2023/03/02 04:59:15;;;;;;;17.17;9.57;;;-2.00;99.90;;;;;;5034228;28;20229;-59
2023/03/02 05:01:44;;;;;;;18.13;10.30;;;-2.00;99.90;;;;;;5035059;28;20583;-59
2023/03/02 05:04:13;;;;;;;17.10;10.23;;;-2.00;99.90;;;;;;5034006;28;20617;-59
2023/03/02 05:06:43;;;;;;;13.50;9.13;;;-2.10;99.90;;;;;;5030047;28;20244;-59
2023/03/02 05:09:11;;;;;;;19.93;10.10;;;-2.10;99.90;;;;;;5032900;28;20221;-59
2023/03/02 05:11:42;;;;;;;15.83;9.33;;;-2.20;99.90;;;;;;5033781;28;20301;-58
2023/03/02 05:14:12;;;;;;;19.27;10.60;;;-2.20;99.90;;;;;;5035866;28;20229;-59
2023/03/02 05:16:41;;;;;;;17.87;10.63;;;-2.20;99.90;;;;;;5033637;28;20236;-59
2023/03/02 05:19:11;;;;;;;17.43;9.63;;;-2.20;99.90;;;;;;5032751;28;20221;-59
2023/03/02 05:21:40;;;;;;;17.90;9.23;;;-2.20;99.90;;;;;;5032944;28;20228;-59
2023/03/02 05:24:10;;;;;;;15.73;9.40;;;-2.20;99.90;;;;;;5030022;28;20291;-59
2023/03/02 05:26:39;;;;;;;15.13;9.47;;;-2.30;99.90;;;;;;5032806;28;20223;-59
2023/03/02 05:29:08;;;;;;;15.53;9.30;;;-2.30;99.90;;;;;;5028780;28;20668;-59
2023/03/02 05:31:39;;;;;;;16.60;10.20;;;-2.30;99.90;;;;;;5017043;28;20205;-59
2023/03/02 05:34:10;;;;;;;18.00;9.60;;;-2.30;99.90;;;;;;5022595;28;20226;-58
2023/03/02 05:36:39;;;;;;;16.97;10.00;;;-2.30;99.90;;;;;;5030771;28;20324;-59
2023/03/02 05:39:09;;;;;;;18.20;10.27;;;-2.20;99.90;;;;;;5036077;28;20216;-59
2023/03/02 05:41:38;;;;;;;21.17;10.83;;;-2.20;99.90;;;;;;5025192;28;20699;-59
2023/03/02 05:44:10;;;;;;;19.07;10.60;;;-2.20;99.90;;;;;;5030847;28;20201;-58
2023/03/02 05:46:39;;;;;;;20.20;10.67;;;-2.20;99.90;;;;;;5032281;28;20244;-59
2023/03/02 05:49:07;;;;;;;20.20;10.13;;;-2.20;99.90;;;;;;5016027;28;20568;-59
2023/03/02 05:51:35;;;;;;;18.60;9.87;;;-2.30;99.90;;;;;;5032457;28;20221;-58
2023/03/02 05:54:04;;;;;;;20.13;10.50;;;-2.30;99.90;;;;;;5032977;28;20260;-59
2023/03/02 05:56:33;;;;;;;17.63;10.13;;;-2.40;99.90;;;;;;5028214;28;20248;-59
2023/03/02 05:59:02;;;;;;;16.43;9.70;;;-2.40;99.90;;;;;;5032823;28;20532;-59
2023/03/02 06:01:30;;;;;;;19.93;10.40;;;-2.50;99.90;;;;;;5016380;28;20197;-59
2023/03/02 06:03:59;;;;;;;17.23;10.30;;;-2.50;99.90;;;;;;5023676;28;20235;-59
2023/03/02 06:06:27;;;;;;;16.53;10.47;;;-2.50;99.90;;;;;;5042237;28;20584;-59
2023/03/02 06:08:58;;;;;;;19.03;11.13;;;-2.50;99.90;;;;;;5031466;28;20225;-59
2023/03/02 06:11:27;;;;;;;23.87;11.00;;;-2.50;99.90;;;;;;5032289;28;20228;-59
2023/03/02 06:13:56;;;;;;;20.10;10.57;;;-2.60;99.90;;;;;;5025073;28;20197;-58
2023/03/02 06:16:24;;;;;;;20.90;10.80;;;-2.50;99.90;;;;;;5020832;28;20219;-58
2023/03/02 06:18:52;;;;;;;21.07;11.17;;;-2.40;99.90;;;;;;5033246;28;20221;-59
2023/03/02 06:21:21;;;;;;;20.83;11.67;;;-2.40;99.90;;;;;;5023793;28;20225;-59
2023/03/02 06:23:49;;;;;;;25.73;11.97;;;-2.30;99.90;;;;;;5029379;28;20213;-59
2023/03/02 06:26:17;;;;;;;24.93;11.67;;;-2.40;99.90;;;;;;5035245;28;20224;-59
2023/03/02 06:28:45;;;;;;;23.27;12.17;;;-2.40;99.90;;;;;;5019334;28;20263;-59
2023/03/02 06:31:22;;;;;;;24.70;12.17;;;-2.40;99.90;;;;;;5032180;28;20301;-58
2023/03/02 06:33:50;;;;;;;33.53;13.30;;;-2.40;99.90;;;;;;5031490;28;20252;-59
2023/03/02 06:36:18;;;;;;;24.63;11.90;;;-2.40;99.90;;;;;;5022064;28;20263;-59
2023/03/02 06:38:47;;;;;;;25.07;12.30;;;-2.30;99.90;;;;;;5032517;28;20686;-59
2023/03/02 06:41:15;;;;;;;25.00;13.13;;;-2.30;99.90;;;;;;5032047;28;20221;-58
2023/03/02 06:43:44;;;;;;;25.90;12.43;;;-2.30;99.90;;;;;;5030166;28;20185;-59
2023/03/02 06:46:12;;;;;;;22.07;12.63;;;-2.20;99.90;;;;;;5032418;28;20246;-58
2023/03/02 06:48:41;;;;;;;22.00;12.30;;;-2.10;99.90;;;;;;5028678;28;20217;-58
2023/03/02 06:51:11;;;;;;;27.43;12.53;;;-2.10;99.90;;;;;;5018181;28;20213;-58
2023/03/02 06:53:39;;;;;;;25.37;13.47;;;-1.90;99.90;;;;;;5032177;28;20628;-59
2023/03/02 06:56:08;;;;;;;31.97;15.07;;;-1.80;99.90;;;;;;5031449;28;20243;-58
2023/03/02 06:58:37;;;;;;;26.77;13.53;;;-1.80;99.90;;;;;;5036596;28;20200;-58
2023/03/02 07:01:06;;;;;;;40.30;14.40;;;-1.70;99.90;;;;;;5035721;28;20233;-59
2023/03/02 07:03:35;;;;;;;27.13;14.07;;;-1.60;99.90;;;;;;5035678;28;20244;-58
2023/03/02 07:06:06;;;;;;;30.93;15.47;;;-1.60;99.90;;;;;;5030016;28;20225;-59
2023/03/02 07:08:34;;;;;;;30.87;15.30;;;-1.50;99.90;;;;;;5029631;28;20221;-59
2023/03/02 07:11:05;;;;;;;32.80;15.20;;;-1.40;99.90;;;;;;5036018;28;20224;-59
2023/03/02 07:13:34;;;;;;;31.17;15.63;;;-1.40;99.90;;;;;;5036567;28;20198;-59
2023/03/02 07:16:06;;;;;;;36.33;16.50;;;-1.30;99.90;;;;;;5035109;28;20213;-59
2023/03/02 07:18:35;;;;;;;41.40;18.47;;;-1.20;99.90;;;;;;5031167;28;20244;-59
2023/03/02 07:21:05;;;;;;;34.67;17.97;;;-1.20;99.90;;;;;;5033607;28;20229;-59
2023/03/02 07:23:34;;;;;;;33.47;16.47;;;-1.10;99.90;;;;;;5024648;28;20221;-59
2023/03/02 07:26:07;;;;;;;32.37;17.10;;;-1.10;99.90;;;;;;5033973;28;20364;-59
2023/03/02 07:28:38;;;;;;;35.37;16.63;;;-1.10;99.90;;;;;;5035830;28;20247;-59
2023/03/02 07:31:06;;;;;;;32.13;15.50;;;-1.00;99.90;;;;;;5033698;28;20229;-59
2023/03/02 07:33:35;;;;;;;38.53;17.03;;;-0.90;99.90;;;;;;5035565;28;20272;-59
2023/03/02 07:36:06;;;;;;;38.57;17.07;;;-0.80;99.90;;;;;;5035439;28;20221;-59
2023/03/02 07:38:36;;;;;;;33.83;16.93;;;-0.60;99.90;;;;;;5031373;28;20222;-59
2023/03/02 07:41:08;;;;;;;40.27;15.87;;;-0.30;99.90;;;;;;5026741;28;20714;-59
2023/03/02 07:43:37;;;;;;;33.47;16.70;;;0.10;99.90;;;;;;5031335;28;20225;-59
2023/03/02 07:46:06;;;;;;;30.93;15.93;;;0.50;99.90;;;;;;5023716;28;20222;-60
2023/03/02 07:48:34;;;;;;;32.70;17.77;;;0.70;99.90;;;;;;5043828;28;20230;-60
2023/03/02 07:51:05;;;;;;;39.73;17.50;;;1.00;99.90;;;;;;5032335;28;20220;-60
2023/03/02 07:53:34;;;;;;;37.07;17.50;;;1.40;99.90;;;;;;5031648;28;20217;-59
2023/03/02 07:56:06;;;;;;;38.77;16.73;;;1.60;99.90;;;;;;5023886;28;20537;-60
2023/03/02 07:58:35;;;;;;;34.53;17.40;;;1.80;99.90;;;;;;5033819;28;20284;-60
2023/03/02 08:01:03;;;;;;;32.03;16.27;;;2.10;99.90;;;;;;5028254;28;20230;-60
2023/03/02 08:03:31;;;;;;;32.33;17.03;;;2.30;99.90;;;;;;5029960;28;20258;-60
2023/03/02 08:06:06;;;;;;;37.27;17.50;;;2.70;99.90;;;;;;5031702;28;20272;-60
2023/03/02 08:08:35;;;;;;;39.93;17.57;;;3.10;99.90;;;;;;5029156;28;20279;-60
2023/03/02 08:11:05;;;;;;;38.10;17.67;;;3.30;99.90;;;;;;5028832;28;20227;-60
2023/03/02 08:13:33;;;;;;;34.97;17.93;;;3.50;99.90;;;;;;5028572;28;20189;-60
2023/03/02 08:16:02;;;;;;;33.03;16.67;;;3.70;99.90;;;;;;5022837;28;20213;-60
2023/03/02 08:18:31;;;;;;;40.00;16.90;;;3.80;99.90;;;;;;5021277;28;20218;-60
2023/03/02 08:20:59;;;;;;;30.83;16.70;;;4.10;99.90;;;;;;5027057;28;20240;-60
2023/03/02 08:23:29;;;;;;;30.37;15.97;;;4.20;99.90;;;;;;5030559;28;20975;-60
2023/03/02 08:25:58;;;;;;;30.27;16.03;;;4.10;99.90;;;;;;5022889;28;20541;-59
2023/03/02 08:28:26;;;;;;;36.33;17.27;;;4.30;99.90;;;;;;5026351;28;20193;-60
2023/03/02 08:30:57;;;;;;;33.27;15.83;;;4.50;99.90;;;;;;5026159;28;20221;-60
2023/03/02 08:33:27;;;;;;;28.80;15.63;;;4.60;99.90;;;;;;5020460;28;20213;-60
2023/03/02 08:35:56;;;;;;;25.43;15.70;;;4.80;99.90;;;;;;5028557;28;20248;-60
2023/03/02 08:38:25;;;;;;;28.63;16.33;;;5.00;99.90;;;;;;5024172;28;20222;-60
2023/03/02 08:40:55;;;;;;;32.33;16.33;;;5.20;99.90;;;;;;5026104;28;20594;-60
2023/03/02 08:43:25;;;;;;;28.87;15.90;;;5.20;99.90;;;;;;5026484;28;20182;-60
2023/03/02 08:45:55;;;;;;;30.10;16.47;;;4.80;99.90;;;;;;5020207;28;20222;-60
2023/03/02 08:48:25;;;;;;;33.57;16.60;;;4.80;99.90;;;;;;5022529;28;20221;-61
2023/03/02 08:50:57;;;;;;;31.80;15.50;;;5.30;99.90;;;;;;5004324;28;20249;-61
2023/03/02 08:53:27;;;;;;;31.40;15.13;;;5.50;99.90;;;;;;5023951;28;20221;-61
2023/03/02 08:55:57;;;;;;;27.43;15.10;;;5.70;99.90;;;;;;5028075;28;20229;-61
2023/03/02 08:58:25;;;;;;;28.00;15.27;;;5.80;99.90;;;;;;5029792;28;20228;-61
2023/03/02 09:00:53;;;;;;;27.30;15.57;;;6.10;99.90;;;;;;5026702;28;20285;-61
2023/03/02 09:03:22;;;;;;;30.57;15.80;;;6.20;99.90;;;;;;5022182;28;20628;-61
2023/03/02 09:05:50;;;;;;;30.20;15.83;;;5.80;99.90;;;;;;5005985;28;20222;-61
2023/03/02 09:08:18;;;;;;;26.27;15.10;;;5.90;99.90;;;;;;5018941;28;20221;-61
2023/03/02 09:10:46;;;;;;;29.10;15.77;;;5.80;99.90;;;;;;5026750;28;20189;-61
2023/03/02 09:13:16;;;;;;;26.33;14.80;;;6.00;99.90;;;;;;5021869;28;20580;-61
2023/03/02 09:15:45;;;;;;;28.90;14.90;;;5.90;99.90;;;;;;5020481;28;20815;-61
2023/03/02 09:18:13;;;;;;;28.57;16.00;;;5.80;99.90;;;;;;5021786;28;20698;-61
2023/03/02 09:20:41;;;;;;;26.13;14.93;;;5.90;99.90;;;;;;5016146;28;20224;-61
2023/03/02 09:23:11;;;;;;;27.60;15.17;;;6.30;99.90;;;;;;5026951;28;20233;-61
2023/03/02 09:25:39;;;;;;;28.13;15.20;;;6.50;99.90;;;;;;5024815;28;20239;-61
2023/03/02 09:28:07;;;;;;;26.67;15.47;;;6.60;99.90;;;;;;5025557;28;20214;-61
2023/03/02 09:30:37;;;;;;;30.33;16.33;;;6.70;99.90;;;;;;5010189;28;22686;-61
2023/03/02 09:33:05;;;;;;;28.07;16.43;;;6.50;99.90;;;;;;5016388;28;20224;-61
2023/03/02 09:35:34;;;;;;;27.93;15.80;;;6.60;99.90;;;;;;5024528;28;20218;-61
2023/03/02 09:38:03;;;;;;;29.03;15.90;;;6.90;99.90;;;;;;5021760;28;20584;-61
2023/03/02 09:40:33;;;;;;;27.70;16.33;;;7.30;99.90;;;;;;5016350;28;20193;-61
2023/03/02 09:43:14;;;;;;;28.97;16.30;;;7.40;99.90;;;;;;5019731;28;20228;-61
2023/03/02 09:45:58;;;;;;;27.03;15.70;;;7.30;99.90;;;;;;5025306;28;20244;-61
2023/03/02 09:48:37;;;;;;;29.77;16.17;;;7.30;99.90;;;;;;5020310;28;20221;-61
2023/03/02 09:51:28;;;;;;;28.00;16.10;;;7.60;99.90;;;;;;5020205;28;20306;-61
2023/03/02 09:54:04;;;;;;;31.40;17.27;;;7.80;99.90;;;;;;5022313;28;20229;-61
2023/03/02 09:56:36;;;;;;;27.77;16.17;;;7.90;99.90;;;;;;5022490;28;20217;-61
2023/03/02 09:59:08;;;;;;;30.30;17.10;;;8.30;99.90;;;;;;5017137;28;20197;-62
2023/03/02 10:01:44;;;;;;;36.07;16.27;;;8.70;99.90;;;;;;5027254;28;20193;-61
2023/03/02 10:04:20;;;;;;;34.20;17.87;;;8.80;99.90;;;;;;5028517;28;20240;-62
2023/03/02 10:06:56;;;;;;;30.83;17.20;;;8.60;99.90;;;;;;5023264;28;20690;-62
2023/03/02 10:09:25;;;;;;;31.00;17.20;;;8.60;99.90;;;;;;5024240;28;20282;-62
2023/03/02 10:12:06;;;;;;;37.57;18.80;;;8.50;99.90;;;;;;5016186;28;20221;-62
2023/03/02 10:14:41;;;;;;;32.90;16.73;;;8.60;99.90;;;;;;5019731;28;20225;-62
2023/03/02 10:17:36;;;;;;;27.47;16.47;;;8.80;99.90;;;;;;5021240;28;20248;-62
2023/03/02 10:20:11;;;;;;;31.90;17.13;;;9.30;99.90;;;;;;5011436;28;20209;-62
2023/03/02 10:22:45;;;;;;;31.67;17.40;;;9.50;99.90;;;;;;5022007;28;20744;-62
2023/03/02 10:25:23;;;;;;;28.20;17.33;;;9.70;99.90;;;;;;5017589;28;20213;-62
2023/03/02 10:27:55;;;;;;;29.53;16.93;;;10.00;99.90;;;;;;5019433;28;20224;-62
2023/03/02 10:30:29;;;;;;;26.63;16.37;;;10.40;99.90;;;;;;5027683;28;20256;-62
2023/03/02 10:33:02;;;;;;;31.03;18.77;;;10.70;99.90;;;;;;5010162;28;20229;-62
2023/03/02 10:35:31;;;;;;;32.50;18.93;;;10.60;99.90;;;;;;5023814;28;20280;-63
2023/03/02 10:38:12;;;;;;;31.67;17.90;;;10.90;99.90;;;;;;5030530;28;20228;-62
2023/03/02 10:40:43;;;;;;;29.17;18.23;;;11.30;99.90;;;;;;5026152;28;20292;-62
2023/03/02 10:43:17;;;;;;;28.67;17.77;;;11.60;99.90;;;;;;5024027;28;20230;-62
2023/03/02 10:45:46;;;;;;;30.87;17.77;;;11.70;99.90;;;;;;5025159;28;20215;-62
2023/03/02 10:48:16;;;;;;;28.83;18.37;;;11.60;99.90;;;;;;5010712;28;20233;-62
2023/03/02 10:50:44;;;;;;;30.57;17.90;;;11.10;99.90;;;;;;5024619;28;20220;-62
2023/03/02 10:53:18;;;;;;;33.67;19.23;;;10.50;99.90;;;;;;5029456;28;20225;-62
2023/03/02 10:55:47;;;;;;;30.07;18.67;;;10.60;99.90;;;;;;5028636;28;20630;-62
2023/03/02 10:58:24;;;;;;;32.60;18.87;;;10.20;99.90;;;;;;5003160;28;20233;-61
2023/03/02 11:00:57;;;;;;;31.07;17.63;;;10.00;99.90;;;;;;5000152;28;20221;-62
2023/03/02 11:03:28;;;;;;;32.33;17.90;;;10.30;99.90;;;;;;5005765;28;20245;-62
2023/03/02 11:05:59;;;;;;;28.53;17.37;;;10.60;99.90;;;;;;5005114;28;20217;-62
2023/03/02 11:08:30;;;;;;;31.37;17.77;;;10.50;99.90;;;;;;5006591;28;20241;-62
2023/03/02 11:11:00;;;;;;;30.80;17.80;;;10.60;99.90;;;;;;5001573;28;20267;-62
2023/03/02 11:13:31;;;;;;;30.93;18.63;;;10.90;99.90;;;;;;5007471;28;20248;-62
2023/03/02 11:16:01;;;;;;;31.73;18.77;;;10.80;99.90;;;;;;5001782;28;20605;-62
2023/03/02 11:18:34;;;;;;;28.50;17.53;;;10.70;99.90;;;;;;5007858;28;20623;-62
2023/03/02 11:21:06;;;;;;;28.83;18.03;;;11.00;99.90;;;;;;5005667;28;20223;-62
2023/03/02 11:23:48;;;;;;;31.53;17.53;;;11.00;99.90;;;;;;5013446;28;20223;-62
2023/03/02 11:26:23;;;;;;;32.03;18.30;;;11.50;99.90;;;;;;4997463;28;20226;-62
2023/03/02 11:28:56;;;;;;;29.20;17.70;;;11.30;99.90;;;;;;5009877;28;20209;-62
2023/03/02 11:31:32;;;;;;;29.80;18.00;;;10.90;99.90;;;;;;5003207;28;20198;-62
2023/03/02 11:34:12;;;;;;;31.07;18.57;;;11.10;99.90;;;;;;5002878;28;20260;-62
2023/03/02 11:36:56;;;;;;;31.23;18.10;;;11.20;99.90;;;;;;5007416;28;20647;-62
2023/03/02 11:39:28;;;;;;;32.67;19.23;;;11.40;99.90;;;;;;5001515;28;20228;-62
2023/03/02 11:41:57;;;;;;;30.80;17.47;;;11.70;99.90;;;;;;5009772;28;20449;-62
2023/03/02 11:44:26;;;;;;;33.33;19.90;;;11.70;99.90;;;;;;5008730;28;20218;-62
2023/03/02 11:47:00;;;;;;;28.03;17.43;;;11.70;99.90;;;;;;5010591;28;20201;-62
2023/03/02 11:49:46;;;;;;;31.77;18.43;;;11.90;99.90;;;;;;5007213;28;20213;-63
2023/03/02 11:52:20;;;;;;;29.60;17.43;;;12.40;99.90;;;;;;5003885;28;20222;-62
2023/03/02 11:54:53;;;;;;;28.90;18.13;;;12.30;99.90;;;;;;5008578;28;20237;-62
2023/03/02 11:57:27;;;;;;;32.60;19.23;;;12.10;99.90;;;;;;5004187;28;20300;-62
2023/03/02 11:59:57;;;;;;;33.50;18.47;;;12.30;99.90;;;;;;5006722;28;20897;-62
2023/03/02 12:02:27;;;;;;;30.47;19.47;;;12.70;99.90;;;;;;5009290;28;20246;-62
2023/03/02 12:05:05;;;;;;;31.97;19.30;;;12.40;99.90;;;;;;5002925;28;21486;-62
2023/03/02 12:07:33;;;;;;;35.43;19.70;;;12.70;99.90;;;;;;5006976;28;20207;-62
2023/03/02 12:10:05;;;;;;;31.73;19.27;;;12.60;99.90;;;;;;4998594;28;20227;-62
2023/03/02 12:12:42;;;;;;;31.57;18.30;;;12.30;99.90;;;;;;5005096;28;20231;-62
2023/03/02 12:15:29;;;;;;;30.30;17.47;;;12.80;99.90;;;;;;5003278;28;20213;-62
2023/03/02 12:17:58;;;;;;;31.10;18.03;;;13.20;99.90;;;;;;5002526;28;20224;-62
2023/03/02 12:20:29;;;;;;;28.63;17.30;;;12.70;99.90;;;;;;5005583;28;20718;-62
2023/03/02 12:23:09;;;;;;;27.93;17.50;;;12.30;99.90;;;;;;4997311;28;20202;-62
2023/03/02 12:25:42;;;;;;;29.70;17.97;;;11.40;99.90;;;;;;5005163;28;20201;-62
2023/03/02 12:28:27;;;;;;;28.90;17.17;;;11.10;99.90;;;;;;5003832;28;20268;-62
2023/03/02 12:31:11;;;;;;;29.87;17.93;;;11.50;99.90;;;;;;5004650;28;20565;-62
2023/03/02 12:33:45;;;;;;;34.10;18.57;;;11.60;99.90;;;;;;5020603;28;20711;-62
2023/03/02 12:36:18;;;;;;;27.10;16.33;;;11.90;99.90;;;;;;5027341;28;20630;-62
2023/03/02 12:39:01;;;;;;;32.00;18.30;;;11.70;99.90;;;;;;5022341;28;20679;-62
2023/03/02 12:41:45;;;;;;;35.00;17.50;;;11.80;99.90;;;;;;5025791;28;20233;-62
2023/03/02 12:44:37;;;;;;;33.90;17.47;;;11.40;99.90;;;;;;5022819;28;20213;-62
2023/03/02 12:47:14;;;;;;;32.27;16.80;;;11.80;99.90;;;;;;5020847;28;20559;-62
2023/03/02 12:49:48;;;;;;;28.70;16.87;;;12.20;99.90;;;;;;5024602;28;20217;-62